createdAt,value
2023-02-05T00:00:14.908Z,102436.66
2023-02-05T00:03:16.617Z,102433.59
2023-02-05T00:06:19.667Z,102431.91
2023-02-05T00:09:21.333Z,102434.53
2023-02-05T00:12:23.034Z,102448.78
2023-02-05T00:15:25.802Z,102439.13
2023-02-05T00:18:27.568Z,102436.53
2023-02-05T00:21:30.612Z,102438.94
2023-02-05T00:24:32.360Z,102430.16
2023-02-05T00:27:34.098Z,102433.72
2023-02-05T00:30:35.879Z,102429.00
2023-02-05T00:33:38.307Z,102426.16
2023-02-05T00:36:42.099Z,102426.38
2023-02-05T00:39:43.772Z,102416.44
2023-02-05T00:42:45.536Z,102420.94
2023-02-05T00:45:47.737Z,102427.59
2023-02-05T00:48:49.472Z,102423.09
2023-02-05T00:51:52.548Z,102420.50
2023-02-05T00:54:54.294Z,102425.69
2023-02-05T00:57:56.483Z,102420.25
2023-02-05T01:00:58.305Z,102426.16
2023-02-05T01:04:00.582Z,102415.53
2023-02-05T01:07:03.601Z,102411.28
2023-02-05T01:10:06.333Z,102411.28
2023-02-05T01:13:08.034Z,102409.88
2023-02-05T01:16:10.510Z,102394.50
2023-02-05T01:19:12.982Z,102387.84
2023-02-05T01:22:15.994Z,102384.06
2023-02-05T01:25:17.769Z,102382.91
2023-02-05T01:28:20.347Z,102376.78
2023-02-05T01:31:22.444Z,102369.44
2023-02-05T01:34:24.510Z,102359.50
2023-02-05T01:37:27.537Z,102357.38
2023-02-05T01:40:29.272Z,102348.41
2023-02-05T01:43:31.012Z,102349.09
2023-02-05T01:46:35.213Z,102341.78
2023-02-05T01:49:41.261Z,102341.81
2023-02-05T01:52:44.858Z,102349.13
2023-02-05T01:55:55.782Z,102347.47
2023-02-05T01:59:00.539Z,102345.28
2023-02-05T02:02:07.909Z,102335.63
2023-02-05T02:05:13.093Z,102325.00
2023-02-05T02:08:16.148Z,102316.00
2023-02-05T02:11:22.438Z,102308.44
2023-02-05T02:14:24.594Z,102301.34
2023-02-05T02:17:27.787Z,102305.41
2023-02-05T02:20:35.791Z,102323.34
2023-02-05T02:23:52.513Z,102321.69
2023-02-05T02:27:05.296Z,102320.25
2023-02-05T02:30:15.930Z,102315.06
2023-02-05T02:33:20.955Z,102320.28
2023-02-05T02:36:25.149Z,102309.63
2023-02-05T02:39:36.706Z,102310.34
2023-02-05T02:42:42.796Z,102320.06
2023-02-05T02:45:51.631Z,102313.88
2023-02-05T02:48:57.289Z,102313.69
2023-02-05T02:52:03.994Z,102308.47
2023-02-05T02:55:10.433Z,102297.78
2023-02-05T02:58:20.111Z,102294.50
2023-02-05T03:01:26.048Z,102293.56
2023-02-05T03:04:32.044Z,102304.88
2023-02-05T03:07:38.329Z,102295.41
2023-02-05T03:10:44.728Z,102295.63
2023-02-05T03:13:49.652Z,102286.19
2023-02-05T03:16:56.269Z,102281.00
2023-02-05T03:20:05.901Z,102284.03
2023-02-05T03:23:07.587Z,102270.81
2023-02-05T03:26:23.094Z,102271.03
2023-02-05T03:29:28.727Z,102272.94
2023-02-05T03:32:47.579Z,102273.66
2023-02-05T03:36:03.932Z,102260.00
2023-02-05T03:39:21.248Z,102276.31
2023-02-05T03:42:34.054Z,102282.66
2023-02-05T03:45:46.081Z,102278.63
2023-02-05T03:49:03.363Z,102282.19
2023-02-05T03:52:12.070Z,102267.59
2023-02-05T03:55:18.602Z,102266.38
2023-02-05T03:58:27.189Z,102268.75
2023-02-05T04:01:30.337Z,102269.47
2023-02-05T04:04:33.408Z,102273.47
2023-02-05T04:07:35.980Z,102265.00
2023-02-05T04:10:38.197Z,102262.41
2023-02-05T04:13:40.664Z,102259.75
2023-02-05T04:16:45.415Z,102262.81
2023-02-05T04:19:49.340Z,102272.50
2023-02-05T04:22:53.195Z,102288.09
2023-02-05T04:25:56.098Z,102283.13
2023-02-05T04:29:06.185Z,102273.47
2023-02-05T04:32:14.769Z,102276.31
2023-02-05T04:35:17.802Z,102280.81
2023-02-05T04:38:21.008Z,102286.00
2023-02-05T04:41:22.800Z,102273.03
2023-02-05T04:44:24.508Z,102279.66
2023-02-05T04:47:26.191Z,102283.88
2023-02-05T04:50:29.209Z,102285.53
2023-02-05T04:53:31.125Z,102288.84
2023-02-05T04:56:33.220Z,102290.75
2023-02-05T04:59:34.925Z,102282.72
2023-02-05T05:02:36.610Z,102293.09
2023-02-05T05:05:39.764Z,102293.13
2023-02-05T05:08:41.797Z,102272.78
2023-02-05T05:11:43.496Z,102263.09
2023-02-05T05:14:45.190Z,102266.19
2023-02-05T05:17:46.835Z,102248.00
2023-02-05T05:20:50.007Z,102254.13
2023-02-05T05:23:51.799Z,102262.16
2023-02-05T05:26:53.498Z,102257.19
2023-02-05T05:29:55.170Z,102274.44
2023-02-05T05:32:56.787Z,102283.41
2023-02-05T05:35:59.891Z,102276.81
2023-02-05T05:39:21.696Z,102273.75
2023-02-05T05:42:42.126Z,102267.59
2023-02-05T05:45:43.815Z,102275.63
2023-02-05T05:48:45.578Z,102282.00
2023-02-05T05:51:48.625Z,102271.84
2023-02-05T05:54:50.319Z,102257.44
2023-02-05T05:57:51.928Z,102255.31
2023-02-05T06:00:56.434Z,102258.13
2023-02-05T06:03:58.086Z,102256.47
2023-02-05T06:07:02.242Z,102263.09
2023-02-05T06:10:04.410Z,102261.91
2023-02-05T06:13:06.154Z,102259.53
2023-02-05T06:16:07.885Z,102272.28
2023-02-05T06:19:09.659Z,102284.16
2023-02-05T06:22:12.732Z,102279.66
2023-02-05T06:25:15.623Z,102288.63
2023-02-05T06:28:17.538Z,102281.78
2023-02-05T06:31:19.430Z,102276.09
2023-02-05T06:34:21.242Z,102269.00
2023-02-05T06:37:34.145Z,102266.16
2023-02-05T06:40:47.537Z,102271.81
2023-02-05T06:43:49.155Z,102257.19
2023-02-05T06:46:50.914Z,102262.41
2023-02-05T06:49:52.595Z,102266.88
2023-02-05T06:52:55.653Z,102261.91
2023-02-05T06:55:58.058Z,102255.78
2023-02-05T06:58:59.725Z,102258.41
2023-02-05T07:02:01.405Z,102260.97
2023-02-05T07:05:03.352Z,102254.63
2023-02-05T07:08:06.729Z,102260.06
2023-02-05T07:11:08.410Z,102261.22
2023-02-05T07:14:10.237Z,102251.75
2023-02-05T07:17:12.215Z,102252.75
2023-02-05T07:20:14.039Z,102256.03
2023-02-05T07:23:17.050Z,102256.50
2023-02-05T07:26:18.831Z,102268.31
2023-02-05T07:29:20.632Z,102259.34
2023-02-05T07:32:22.372Z,102256.72
2023-02-05T07:35:24.016Z,102264.78
2023-02-05T07:38:27.053Z,102265.00
2023-02-05T07:41:28.894Z,102260.97
2023-02-05T07:44:30.576Z,102262.41
2023-02-05T07:47:32.363Z,102260.50
2023-02-05T07:50:34.151Z,102259.09
2023-02-05T07:53:37.282Z,102240.66
2023-02-05T07:56:38.893Z,102233.56
2023-02-05T07:59:40.576Z,102215.84
2023-02-05T08:02:42.210Z,102214.44
2023-02-05T08:05:43.973Z,102208.03
2023-02-05T08:08:46.956Z,102217.25
2023-02-05T08:11:48.854Z,102227.41
2023-02-05T08:14:52.613Z,102225.50
2023-02-05T08:17:54.283Z,102229.75
2023-02-05T08:20:56.018Z,102237.56
2023-02-05T08:24:00.988Z,102237.34
2023-02-05T08:27:02.741Z,102237.56
2023-02-05T08:30:05.220Z,102237.34
2023-02-05T08:33:06.918Z,102230.00
2023-02-05T08:36:09.983Z,102233.56
2023-02-05T08:39:13.040Z,102227.16
2023-02-05T08:42:14.648Z,102219.38
2023-02-05T08:45:16.526Z,102224.34
2023-02-05T08:48:18.332Z,102216.78
2023-02-05T08:51:22.961Z,102223.16
2023-02-05T08:54:27.008Z,102212.53
2023-02-05T08:57:30.011Z,102211.56
2023-02-05T09:00:33.257Z,102210.31
2023-02-05T09:03:35.737Z,102194.97
2023-02-05T09:06:37.483Z,102188.75
2023-02-05T09:09:40.902Z,102189.25
2023-02-05T09:12:42.631Z,102184.78
2023-02-05T09:15:48.285Z,102191.16
2023-02-05T09:18:50.690Z,102188.38
2023-02-05T09:21:54.126Z,102189.31
2023-02-05T09:24:57.413Z,102191.91
2023-02-05T09:27:59.243Z,102196.91
2023-02-05T09:31:06.496Z,102191.22
2023-02-05T09:34:08.289Z,102191.94
2023-02-05T09:37:10.111Z,102193.59
2023-02-05T09:40:21.390Z,102189.34
2023-02-05T09:43:36.873Z,102182.94
2023-02-05T09:46:47.321Z,102179.88
2023-02-05T09:49:53.435Z,102174.66
2023-02-05T09:53:00.051Z,102166.63
2023-02-05T09:56:06.978Z,102178.16
2023-02-05T09:59:14.671Z,102174.63
2023-02-05T10:02:26.434Z,102173.69
2023-02-05T10:05:36.700Z,102169.66
2023-02-05T10:08:44.919Z,102163.00
2023-02-05T10:11:58.705Z,102168.44
2023-02-05T10:15:16.826Z,102169.19
2023-02-05T10:18:26.559Z,102163.50
2023-02-05T10:21:46.443Z,102163.72
2023-02-05T10:25:05.321Z,102154.50
2023-02-05T10:28:25.186Z,102150.00
2023-02-05T10:31:39.289Z,102155.16
2023-02-05T10:34:52.669Z,102151.63
2023-02-05T10:37:57.673Z,102150.97
2023-02-05T10:41:07.341Z,102156.66
2023-02-05T10:44:18.980Z,102144.63
2023-02-05T10:47:41.007Z,102144.81
2023-02-05T10:50:53.170Z,102143.38
2023-02-05T10:53:54.824Z,102132.97
2023-02-05T10:56:58.249Z,102123.69
2023-02-05T11:00:08.594Z,102111.59
2023-02-05T11:03:17.007Z,102119.38
2023-02-05T11:06:20.855Z,102121.94
2023-02-05T11:09:31.598Z,102119.84
2023-02-05T11:12:33.797Z,102115.63
2023-02-05T11:15:36.955Z,102116.09
2023-02-05T11:18:40.806Z,102107.16
2023-02-05T11:21:48.709Z,102105.78
2023-02-05T11:24:50.312Z,102100.31
2023-02-05T11:27:54.038Z,102102.34
2023-02-05T11:30:58.806Z,102097.38
2023-02-05T11:34:11.598Z,102097.81
2023-02-05T11:37:17.152Z,102090.31
2023-02-05T11:40:21.601Z,102085.53
2023-02-05T11:43:28.438Z,102085.53
2023-02-05T11:46:44.631Z,102076.81
2023-02-05T11:49:51.230Z,102078.97
2023-02-05T11:52:53.841Z,102074.38
2023-02-05T11:55:57.985Z,102075.53
2023-02-05T11:59:00.941Z,102078.19
2023-02-05T12:02:30.789Z,102064.34
2023-02-05T12:05:38.792Z,102068.31
2023-02-05T12:08:47.511Z,102074.94
2023-02-05T12:12:01.157Z,102068.81
2023-02-05T12:15:15.120Z,102063.34
2023-02-05T12:18:30.306Z,102064.22
2023-02-05T12:21:41.308Z,102061.66
2023-02-05T12:24:52.741Z,102057.97
2023-02-05T12:28:12.491Z,102055.09
2023-02-05T12:31:24.658Z,102058.78
2023-02-05T12:34:39.984Z,102054.13
2023-02-05T12:37:49.925Z,102056.66
2023-02-05T12:41:03.483Z,102054.06
2023-02-05T12:44:20.033Z,102051.94
2023-02-05T12:47:34.040Z,102054.28
2023-02-05T12:50:53.317Z,102044.72
2023-02-05T12:54:20.581Z,102043.19
2023-02-05T12:57:26.504Z,102041.06
2023-02-05T13:00:34.468Z,102040.31
2023-02-05T13:03:42.272Z,102043.81
2023-02-05T13:06:52.296Z,102039.72
2023-02-05T13:10:01.231Z,102033.59
2023-02-05T13:13:06.958Z,102044.88
2023-02-05T13:16:14.273Z,102042.28
2023-02-05T13:19:25.981Z,102033.03
2023-02-05T13:22:50.349Z,102032.63
2023-02-05T13:26:10.711Z,102032.34
2023-02-05T13:29:16.165Z,102030.00
2023-02-05T13:32:23.609Z,102012.28
2023-02-05T13:35:31.318Z,102015.75
2023-02-05T13:38:49.415Z,102017.25
2023-02-05T13:42:08.662Z,102020.09
2023-02-05T13:45:37.727Z,102012.09
2023-02-05T13:49:15.297Z,102003.78
2023-02-05T13:52:32.106Z,102007.81
2023-02-05T13:55:49.425Z,102001.56
2023-02-05T13:58:51.666Z,101996.56
2023-02-05T14:01:57.782Z,102002.47
2023-02-05T14:05:02.013Z,102000.66
2023-02-05T14:08:05.797Z,101987.91
2023-02-05T14:11:10.159Z,101993.72
2023-02-05T14:14:31.394Z,102005.91
2023-02-05T14:17:54.367Z,102003.88
2023-02-05T14:20:56.112Z,102009.38
2023-02-05T14:23:59.374Z,102009.81
2023-02-05T14:27:02.766Z,102015.16
2023-02-05T14:30:44.340Z,102013.81
2023-02-05T14:33:46.242Z,102026.44
2023-02-05T14:36:48.251Z,102037.06
2023-02-05T14:39:51.758Z,102043.03
2023-02-05T14:43:09.697Z,102037.00
2023-02-05T14:46:24.931Z,102042.75
2023-02-05T14:49:30.046Z,102047.13
2023-02-05T14:52:34.015Z,102046.91
2023-02-05T14:55:40.159Z,102057.03
2023-02-05T14:58:45.169Z,102041.34
2023-02-05T15:01:50.414Z,102054.03
2023-02-05T15:04:54.497Z,102060.25
2023-02-05T15:08:11.219Z,102062.13
2023-02-05T15:11:20.006Z,102063.28
2023-02-05T15:14:41.720Z,102071.72
2023-02-05T15:17:51.291Z,102073.53
2023-02-05T15:20:56.256Z,102082.56
2023-02-05T15:24:01.898Z,102079.06
2023-02-05T15:27:13.519Z,102083.78
2023-02-05T15:30:22.055Z,102090.91
2023-02-05T15:33:40.540Z,102097.09
2023-02-05T15:36:49.648Z,102094.75
2023-02-05T15:39:54.280Z,102101.34
2023-02-05T15:42:59.014Z,102100.41
2023-02-05T15:46:05.758Z,102104.25
2023-02-05T15:49:08.221Z,102099.75
2023-02-05T15:52:17.913Z,102111.56
2023-02-05T15:55:22.391Z,102112.72
2023-02-05T15:58:26.709Z,102115.31
2023-02-05T16:01:32.363Z,102113.16
2023-02-05T16:04:35.965Z,102111.53
2023-02-05T16:07:42.268Z,102113.41
2023-02-05T16:10:52.255Z,102120.56
2023-02-05T16:14:10.721Z,102120.06
2023-02-05T16:17:19.757Z,102124.78
2023-02-05T16:20:28.779Z,102124.03
2023-02-05T16:23:36.001Z,102140.63
2023-02-05T16:26:42.877Z,102147.94
2023-02-05T16:29:49.224Z,102148.94
2023-02-05T16:32:53.975Z,102157.47
2023-02-05T16:35:58.933Z,102167.34
2023-02-05T16:39:03.626Z,102175.13
2023-02-05T16:42:07.511Z,102176.84
2023-02-05T16:45:20.221Z,102170.91
2023-02-05T16:48:25.517Z,102182.56
2023-02-05T16:51:33.898Z,102190.84
2023-02-05T16:54:38.693Z,102188.00
2023-02-05T16:57:40.555Z,102195.56
2023-02-05T17:00:42.368Z,102194.88
2023-02-05T17:03:49.323Z,102205.50
2023-02-05T17:06:51.065Z,102209.31
2023-02-05T17:09:52.980Z,102212.16
2023-02-05T17:12:56.680Z,102211.44
2023-02-05T17:16:19.160Z,102206.25
2023-02-05T17:19:27.828Z,102211.19
2023-02-05T17:22:29.654Z,102212.84
2023-02-05T17:25:36.507Z,102222.53
2023-02-05T17:28:43.799Z,102221.84
2023-02-05T17:31:45.828Z,102222.56
2023-02-05T17:34:48.865Z,102235.16
2023-02-05T17:37:51.328Z,102229.47
2023-02-05T17:41:13.113Z,102234.19
2023-02-05T17:44:16.301Z,102246.72
2023-02-05T17:47:18.598Z,102238.94
2023-02-05T17:50:22.009Z,102231.34
2023-02-05T17:53:23.742Z,102239.88
2023-02-05T17:56:25.924Z,102247.22
2023-02-05T17:59:28.000Z,102234.22
2023-02-05T18:02:29.945Z,102246.50
2023-02-05T18:05:33.119Z,102248.41
2023-02-05T18:08:37.041Z,102255.97
2023-02-05T18:11:39.062Z,102251.25
2023-02-05T18:14:40.818Z,102266.84
2023-02-05T18:17:42.543Z,102263.75
2023-02-05T18:20:46.301Z,102272.97
2023-02-05T18:23:50.372Z,102289.78
2023-02-05T18:26:53.006Z,102287.44
2023-02-05T18:29:54.828Z,102293.31
2023-02-05T18:32:56.507Z,102290.28
2023-02-05T18:36:01.900Z,102292.59
2023-02-05T18:39:03.953Z,102285.31
2023-02-05T18:42:05.894Z,102289.53
2023-02-05T18:45:08.858Z,102297.59
2023-02-05T18:48:10.529Z,102293.09
2023-02-05T18:51:16.546Z,102295.22
2023-02-05T18:54:18.222Z,102307.06
2023-02-05T18:57:20.017Z,102307.06
2023-02-05T19:00:21.753Z,102308.47
2023-02-05T19:03:24.063Z,102308.00
2023-02-05T19:06:27.273Z,102317.94
2023-02-05T19:09:29.691Z,102312.75
2023-02-05T19:12:31.662Z,102319.81
2023-02-05T19:15:34.700Z,102314.38
2023-02-05T19:18:36.498Z,102312.00
2023-02-05T19:21:40.606Z,102311.78
2023-02-05T19:24:43.296Z,102316.00
2023-02-05T19:27:45.310Z,102314.59
2023-02-05T19:30:47.149Z,102327.59
2023-02-05T19:33:49.077Z,102334.69
2023-02-05T19:36:52.240Z,102339.91
2023-02-05T19:39:54.009Z,102329.50
2023-02-05T19:42:56.858Z,102339.63
2023-02-05T19:46:02.350Z,102335.59
2023-02-05T19:49:06.247Z,102338.88
2023-02-05T19:52:09.619Z,102352.31
2023-02-05T19:55:11.283Z,102349.94
2023-02-05T19:58:13.108Z,102358.19
2023-02-05T20:01:16.523Z,102354.34
2023-02-05T20:04:22.114Z,102364.97
2023-02-05T20:07:25.140Z,102372.50
2023-02-05T20:10:27.118Z,102362.13
2023-02-05T20:13:30.221Z,102354.56
2023-02-05T20:16:31.954Z,102353.59
2023-02-05T20:19:34.046Z,102358.00
2023-02-05T20:22:37.207Z,102375.34
2023-02-05T20:25:39.099Z,102381.56
2023-02-05T20:29:00.843Z,102393.22
2023-02-05T20:32:02.834Z,102395.66
2023-02-05T20:35:05.356Z,102400.69
2023-02-05T20:38:08.591Z,102402.84
2023-02-05T20:41:11.405Z,102400.28
2023-02-05T20:44:13.345Z,102395.78
2023-02-05T20:47:15.294Z,102397.91
2023-02-05T20:50:17.098Z,102409.47
2023-02-05T20:53:20.272Z,102417.44
2023-02-05T20:56:22.019Z,102414.63
2023-02-05T20:59:24.690Z,102420.56
2023-02-05T21:02:27.894Z,102424.31
2023-02-05T21:05:31.799Z,102430.88
2023-02-05T21:08:37.368Z,102429.19
2023-02-05T21:11:39.497Z,102444.31
2023-02-05T21:14:41.251Z,102445.97
2023-02-05T21:17:43.101Z,102447.91
2023-02-05T21:20:44.986Z,102448.59
2023-02-05T21:23:48.483Z,102447.59
2023-02-05T21:26:50.298Z,102448.34
2023-02-05T21:29:51.991Z,102462.69
2023-02-05T21:32:54.149Z,102468.63
2023-02-05T21:35:56.064Z,102471.50
2023-02-05T21:38:59.991Z,102462.72
2023-02-05T21:42:01.739Z,102469.78
2023-02-05T21:45:03.940Z,102473.34
2023-02-05T21:48:05.932Z,102472.66
2023-02-05T21:51:09.336Z,102485.81
2023-02-05T21:54:12.431Z,102484.69
2023-02-05T21:57:14.136Z,102473.13
2023-02-05T22:00:16.899Z,102474.31
2023-02-05T22:03:18.585Z,102461.56
2023-02-05T22:06:22.065Z,102465.13
2023-02-05T22:09:25.178Z,102463.97
2023-02-05T22:12:26.800Z,102476.72
2023-02-05T22:15:28.582Z,102474.31
2023-02-05T22:18:30.497Z,102499.00
2023-02-05T22:21:34.117Z,102492.66
2023-02-05T22:24:37.208Z,102507.06
2023-02-05T22:27:38.950Z,102516.06
2023-02-05T22:30:40.741Z,102517.53
2023-02-05T22:33:44.230Z,102519.63
2023-02-05T22:36:46.305Z,102519.16
2023-02-05T22:39:49.528Z,102521.03
2023-02-05T22:42:51.221Z,102522.19
2023-02-05T22:45:52.935Z,102524.28
2023-02-05T22:48:55.818Z,102527.28
2023-02-05T22:51:57.548Z,102535.75
2023-02-05T22:55:00.660Z,102539.38
2023-02-05T22:58:02.712Z,102543.16
2023-02-05T23:01:07.800Z,102538.38
2023-02-05T23:04:10.264Z,102535.00
2023-02-05T23:07:12.040Z,102543.06
2023-02-05T23:10:17.094Z,102544.84
2023-02-05T23:13:18.760Z,102546.31
2023-02-05T23:16:22.329Z,102551.25
2023-02-05T23:19:24.004Z,102560.41
2023-02-05T23:22:25.629Z,102556.69
2023-02-05T23:25:28.615Z,102550.28
2023-02-05T23:28:30.319Z,102565.81
2023-02-05T23:31:32.089Z,102553.00
2023-02-05T23:34:34.002Z,102552.50
2023-02-05T23:37:35.780Z,102563.72
2023-02-05T23:40:38.890Z,102562.22
2023-02-05T23:43:40.552Z,102570.13
2023-02-05T23:46:43.684Z,102551.97
2023-02-05T23:49:45.334Z,102554.56
2023-02-05T23:52:47.046Z,102555.03
2023-02-05T23:55:51.893Z,102561.53
2023-02-05T23:58:53.607Z,102567.97
